sensor_id;sensor_type;location;lat;lon;timestamp;temperature;humidity
18173;DHT22;9211;48.818;9.312;2023-08-06T00:00:56;17.30;99.90
18173;DHT22;9211;48.818;9.312;2023-08-06T00:03:24;17.30;99.90
18173;DHT22;9211;48.818;9.312;2023-08-06T00:05:50;17.20;99.90
18173;DHT22;9211;48.818;9.312;2023-08-06T00:08:17;17.30;99.90
18173;DHT22;9211;48.818;9.312;2023-08-06T00:10:44;17.30;99.90
18173;DHT22;9211;48.818;9.312;2023-08-06T00:13:11;17.30;99.90
18173;DHT22;9211;48.818;9.312;2023-08-06T00:15:37;17.30;99.90
18173;DHT22;9211;48.818;9.312;2023-08-06T00:18:04;17.20;99.90
18173;DHT22;9211;48.818;9.312;2023-08-06T00:20:32;17.20;99.90
18173;DHT22;9211;48.818;9.312;2023-08-06T00:22:59;17.30;99.90
18173;DHT22;9211;48.818;9.312;2023-08-06T00:25:26;17.20;99.90
18173;DHT22;9211;48.818;9.312;2023-08-06T00:27:53;17.20;99.90
18173;DHT22;9211;48.818;9.312;2023-08-06T00:30:22;17.10;99.90
18173;DHT22;9211;48.818;9.312;2023-08-06T00:32:50;17.10;99.90
18173;DHT22;9211;48.818;9.312;2023-08-06T00:35:16;17.00;99.90
18173;DHT22;9211;48.818;9.312;2023-08-06T00:37:45;16.90;99.90
18173;DHT22;9211;48.818;9.312;2023-08-06T00:40:13;16.80;99.90
18173;DHT22;9211;48.818;9.312;2023-08-06T00:42:40;16.80;99.90
18173;DHT22;9211;48.818;9.312;2023-08-06T00:45:07;16.90;99.90
18173;DHT22;9211;48.818;9.312;2023-08-06T00:47:34;16.80;99.90
18173;DHT22;9211;48.818;9.312;2023-08-06T00:50:01;16.80;99.90
18173;DHT22;9211;48.818;9.312;2023-08-06T00:52:28;16.70;99.90
18173;DHT22;9211;48.818;9.312;2023-08-06T00:54:56;16.70;99.90
18173;DHT22;9211;48.818;9.312;2023-08-06T00:57:24;16.70;99.90
18173;DHT22;9211;48.818;9.312;2023-08-06T00:59:52;16.80;99.90
18173;DHT22;9211;48.818;9.312;2023-08-06T01:02:20;16.70;99.90
18173;DHT22;9211;48.818;9.312;2023-08-06T01:04:47;16.70;99.90
18173;DHT22;9211;48.818;9.312;2023-08-06T01:07:25;16.70;99.90
18173;DHT22;9211;48.818;9.312;2023-08-06T01:10:09;16.70;99.90
18173;DHT22;9211;48.818;9.312;2023-08-06T01:12:48;16.70;99.90
18173;DHT22;9211;48.818;9.312;2023-08-06T01:15:19;16.70;99.90
18173;DHT22;9211;48.818;9.312;2023-08-06T01:17:48;16.70;99.90
18173;DHT22;9211;48.818;9.312;2023-08-06T01:20:15;16.70;99.90
18173;DHT22;9211;48.818;9.312;2023-08-06T01:22:43;16.70;99.90
18173;DHT22;9211;48.818;9.312;2023-08-06T01:25:11;16.80;99.90
18173;DHT22;9211;48.818;9.312;2023-08-06T01:27:46;16.60;99.90
18173;DHT22;9211;48.818;9.312;2023-08-06T01:30:17;16.60;99.90
18173;DHT22;9211;48.818;9.312;2023-08-06T01:32:49;16.70;99.90
18173;DHT22;9211;48.818;9.312;2023-08-06T01:35:19;16.50;99.90
18173;DHT22;9211;48.818;9.312;2023-08-06T01:37:47;16.60;99.90
18173;DHT22;9211;48.818;9.312;2023-08-06T01:40:14;16.60;99.90
18173;DHT22;9211;48.818;9.312;2023-08-06T01:42:41;16.60;99.90
18173;DHT22;9211;48.818;9.312;2023-08-06T01:45:09;16.60;99.90
18173;DHT22;9211;48.818;9.312;2023-08-06T01:47:36;16.60;99.90
18173;DHT22;9211;48.818;9.312;2023-08-06T01:50:03;16.70;99.90
18173;DHT22;9211;48.818;9.312;2023-08-06T01:52:30;16.60;99.90
18173;DHT22;9211;48.818;9.312;2023-08-06T01:54:59;16.60;99.90
18173;DHT22;9211;48.818;9.312;2023-08-06T01:57:26;16.60;99.90
18173;DHT22;9211;48.818;9.312;2023-08-06T01:59:53;16.60;99.90
18173;DHT22;9211;48.818;9.312;2023-08-06T02:02:20;16.60;99.90
18173;DHT22;9211;48.818;9.312;2023-08-06T02:04:46;16.60;99.90
18173;DHT22;9211;48.818;9.312;2023-08-06T02:07:13;16.60;99.90
18173;DHT22;9211;48.818;9.312;2023-08-06T02:09:42;16.60;99.90
18173;DHT22;9211;48.818;9.312;2023-08-06T02:12:10;16.60;99.90
18173;DHT22;9211;48.818;9.312;2023-08-06T02:14:37;16.60;99.90
18173;DHT22;9211;48.818;9.312;2023-08-06T02:17:05;16.60;99.90
18173;DHT22;9211;48.818;9.312;2023-08-06T02:19:32;16.50;99.90
18173;DHT22;9211;48.818;9.312;2023-08-06T02:21:59;16.50;99.90
18173;DHT22;9211;48.818;9.312;2023-08-06T02:24:27;16.50;99.90
18173;DHT22;9211;48.818;9.312;2023-08-06T02:26:54;16.40;99.90
18173;DHT22;9211;48.818;9.312;2023-08-06T02:29:23;16.40;99.90
18173;DHT22;9211;48.818;9.312;2023-08-06T02:31:50;16.40;99.90
18173;DHT22;9211;48.818;9.312;2023-08-06T02:34:16;16.40;99.90
18173;DHT22;9211;48.818;9.312;2023-08-06T02:36:44;16.40;99.90
18173;DHT22;9211;48.818;9.312;2023-08-06T02:39:11;16.30;99.90
18173;DHT22;9211;48.818;9.312;2023-08-06T02:41:38;16.30;99.90
18173;DHT22;9211;48.818;9.312;2023-08-06T02:44:05;16.30;99.90
18173;DHT22;9211;48.818;9.312;2023-08-06T02:46:33;16.20;99.90
18173;DHT22;9211;48.818;9.312;2023-08-06T02:49:00;16.20;99.90
18173;DHT22;9211;48.818;9.312;2023-08-06T02:51:27;16.20;99.90
18173;DHT22;9211;48.818;9.312;2023-08-06T02:53:53;16.10;99.90
18173;DHT22;9211;48.818;9.312;2023-08-06T02:56:21;16.10;99.90
18173;DHT22;9211;48.818;9.312;2023-08-06T02:58:57;16.10;99.90
18173;DHT22;9211;48.818;9.312;2023-08-06T03:01:41;16.10;99.90
18173;DHT22;9211;48.818;9.312;2023-08-06T03:04:16;16.00;99.90
18173;DHT22;9211;48.818;9.312;2023-08-06T03:06:46;16.00;99.90
18173;DHT22;9211;48.818;9.312;2023-08-06T03:09:13;16.00;99.90
18173;DHT22;9211;48.818;9.312;2023-08-06T03:11:40;16.00;99.90
18173;DHT22;9211;48.818;9.312;2023-08-06T03:14:11;15.90;99.90
18173;DHT22;9211;48.818;9.312;2023-08-06T03:16:39;15.90;99.90
18173;DHT22;9211;48.818;9.312;2023-08-06T03:19:07;15.90;99.90
18173;DHT22;9211;48.818;9.312;2023-08-06T03:21:34;15.90;99.90
18173;DHT22;9211;48.818;9.312;2023-08-06T03:24:02;15.90;99.90
18173;DHT22;9211;48.818;9.312;2023-08-06T03:26:32;15.90;99.90
18173;DHT22;9211;48.818;9.312;2023-08-06T03:28:59;15.90;99.90
18173;DHT22;9211;48.818;9.312;2023-08-06T03:31:28;15.90;99.90
18173;DHT22;9211;48.818;9.312;2023-08-06T03:33:56;15.90;99.90
18173;DHT22;9211;48.818;9.312;2023-08-06T03:36:27;15.90;99.90
18173;DHT22;9211;48.818;9.312;2023-08-06T03:38:54;15.90;99.90
18173;DHT22;9211;48.818;9.312;2023-08-06T03:41:21;16.00;99.90
18173;DHT22;9211;48.818;9.312;2023-08-06T03:43:48;16.00;99.90
18173;DHT22;9211;48.818;9.312;2023-08-06T03:46:21;16.00;99.90
18173;DHT22;9211;48.818;9.312;2023-08-06T03:48:48;16.00;99.90
18173;DHT22;9211;48.818;9.312;2023-08-06T03:51:15;16.00;99.90
18173;DHT22;9211;48.818;9.312;2023-08-06T03:53:45;16.00;99.90
18173;DHT22;9211;48.818;9.312;2023-08-06T03:56:12;15.90;99.90
18173;DHT22;9211;48.818;9.312;2023-08-06T03:58:39;16.00;99.90
18173;DHT22;9211;48.818;9.312;2023-08-06T04:01:07;15.90;99.90
18173;DHT22;9211;48.818;9.312;2023-08-06T04:03:40;15.90;99.90
18173;DHT22;9211;48.818;9.312;2023-08-06T04:06:07;15.90;99.90
18173;DHT22;9211;48.818;9.312;2023-08-06T04:08:35;16.00;99.90
18173;DHT22;9211;48.818;9.312;2023-08-06T04:11:04;16.00;99.90
18173;DHT22;9211;48.818;9.312;2023-08-06T04:13:30;15.90;99.90
18173;DHT22;9211;48.818;9.312;2023-08-06T04:16:01;16.00;99.90
18173;DHT22;9211;48.818;9.312;2023-08-06T04:18:28;16.00;99.90
18173;DHT22;9211;48.818;9.312;2023-08-06T04:20:55;15.90;99.90
18173;DHT22;9211;48.818;9.312;2023-08-06T04:23:23;16.00;99.90
18173;DHT22;9211;48.818;9.312;2023-08-06T04:25:56;16.00;99.90
18173;DHT22;9211;48.818;9.312;2023-08-06T04:28:26;16.00;99.90
18173;DHT22;9211;48.818;9.312;2023-08-06T04:30:53;15.90;99.90
18173;DHT22;9211;48.818;9.312;2023-08-06T04:33:20;15.90;99.90
18173;DHT22;9211;48.818;9.312;2023-08-06T04:35:47;15.80;99.90
18173;DHT22;9211;48.818;9.312;2023-08-06T04:38:14;15.80;99.90
18173;DHT22;9211;48.818;9.312;2023-08-06T04:40:41;15.80;99.90
18173;DHT22;9211;48.818;9.312;2023-08-06T04:43:08;15.90;99.90
18173;DHT22;9211;48.818;9.312;2023-08-06T04:45:36;15.90;99.90
18173;DHT22;9211;48.818;9.312;2023-08-06T04:48:03;15.90;99.90
18173;DHT22;9211;48.818;9.312;2023-08-06T04:50:30;15.90;99.90
18173;DHT22;9211;48.818;9.312;2023-08-06T04:52:57;15.90;99.90
18173;DHT22;9211;48.818;9.312;2023-08-06T04:55:24;15.90;99.90
18173;DHT22;9211;48.818;9.312;2023-08-06T04:57:51;15.90;99.90
18173;DHT22;9211;48.818;9.312;2023-08-06T05:00:18;15.90;99.90
18173;DHT22;9211;48.818;9.312;2023-08-06T05:02:46;15.90;99.90
18173;DHT22;9211;48.818;9.312;2023-08-06T05:05:13;15.90;99.90
18173;DHT22;9211;48.818;9.312;2023-08-06T05:07:39;16.00;99.90
18173;DHT22;9211;48.818;9.312;2023-08-06T05:10:07;15.90;99.90
18173;DHT22;9211;48.818;9.312;2023-08-06T05:12:34;16.00;99.90
18173;DHT22;9211;48.818;9.312;2023-08-06T05:15:01;16.00;99.90
18173;DHT22;9211;48.818;9.312;2023-08-06T05:17:28;16.00;99.90
18173;DHT22;9211;48.818;9.312;2023-08-06T05:19:56;16.10;99.90
18173;DHT22;9211;48.818;9.312;2023-08-06T05:22:23;16.10;99.90
18173;DHT22;9211;48.818;9.312;2023-08-06T05:24:50;16.20;99.90
18173;DHT22;9211;48.818;9.312;2023-08-06T05:27:17;16.30;99.90
18173;DHT22;9211;48.818;9.312;2023-08-06T05:29:44;16.30;99.90
18173;DHT22;9211;48.818;9.312;2023-08-06T05:32:11;16.30;99.90
18173;DHT22;9211;48.818;9.312;2023-08-06T05:34:38;16.40;99.90
18173;DHT22;9211;48.818;9.312;2023-08-06T05:37:06;16.40;99.90
18173;DHT22;9211;48.818;9.312;2023-08-06T05:39:33;16.40;99.90
18173;DHT22;9211;48.818;9.312;2023-08-06T05:42:00;16.40;99.90
18173;DHT22;9211;48.818;9.312;2023-08-06T05:44:27;16.50;99.90
18173;DHT22;9211;48.818;9.312;2023-08-06T05:46:54;16.60;99.90
18173;DHT22;9211;48.818;9.312;2023-08-06T05:49:20;16.60;99.90
18173;DHT22;9211;48.818;9.312;2023-08-06T05:51:47;16.70;99.90
18173;DHT22;9211;48.818;9.312;2023-08-06T05:54:16;16.80;99.90
18173;DHT22;9211;48.818;9.312;2023-08-06T05:56:43;16.80;99.90
18173;DHT22;9211;48.818;9.312;2023-08-06T05:59:09;16.80;99.90
18173;DHT22;9211;48.818;9.312;2023-08-06T06:01:36;16.90;99.90
18173;DHT22;9211;48.818;9.312;2023-08-06T06:04:03;16.90;99.90
18173;DHT22;9211;48.818;9.312;2023-08-06T06:06:30;16.90;99.90
18173;DHT22;9211;48.818;9.312;2023-08-06T06:08:57;16.90;99.90
18173;DHT22;9211;48.818;9.312;2023-08-06T06:11:25;16.80;99.90
18173;DHT22;9211;48.818;9.312;2023-08-06T06:13:52;16.80;99.90
18173;DHT22;9211;48.818;9.312;2023-08-06T06:16:19;16.80;99.90
18173;DHT22;9211;48.818;9.312;2023-08-06T06:18:46;16.80;99.90
18173;DHT22;9211;48.818;9.312;2023-08-06T06:21:13;16.80;99.90
18173;DHT22;9211;48.818;9.312;2023-08-06T06:23:39;16.70;99.90
18173;DHT22;9211;48.818;9.312;2023-08-06T06:26:06;16.70;99.90
18173;DHT22;9211;48.818;9.312;2023-08-06T06:28:34;16.60;99.90
18173;DHT22;9211;48.818;9.312;2023-08-06T06:31:01;16.60;99.90
18173;DHT22;9211;48.818;9.312;2023-08-06T06:33:29;16.50;99.90
18173;DHT22;9211;48.818;9.312;2023-08-06T06:35:56;16.50;99.90
18173;DHT22;9211;48.818;9.312;2023-08-06T06:38:22;16.50;99.90
18173;DHT22;9211;48.818;9.312;2023-08-06T06:40:54;16.50;99.90
18173;DHT22;9211;48.818;9.312;2023-08-06T06:43:21;16.50;99.90
18173;DHT22;9211;48.818;9.312;2023-08-06T06:45:52;16.40;99.90
18173;DHT22;9211;48.818;9.312;2023-08-06T06:48:19;16.50;99.90
18173;DHT22;9211;48.818;9.312;2023-08-06T06:50:47;16.60;99.90
18173;DHT22;9211;48.818;9.312;2023-08-06T06:53:15;16.60;99.90
18173;DHT22;9211;48.818;9.312;2023-08-06T06:55:43;16.70;99.90
18173;DHT22;9211;48.818;9.312;2023-08-06T06:58:10;16.70;99.90
18173;DHT22;9211;48.818;9.312;2023-08-06T07:00:37;16.70;99.90
18173;DHT22;9211;48.818;9.312;2023-08-06T07:03:05;16.70;99.90
18173;DHT22;9211;48.818;9.312;2023-08-06T07:05:32;16.80;99.90
18173;DHT22;9211;48.818;9.312;2023-08-06T07:08:05;16.70;99.90
18173;DHT22;9211;48.818;9.312;2023-08-06T07:10:36;16.80;99.90
18173;DHT22;9211;48.818;9.312;2023-08-06T07:13:03;16.80;99.90
18173;DHT22;9211;48.818;9.312;2023-08-06T07:15:30;16.70;99.90
18173;DHT22;9211;48.818;9.312;2023-08-06T07:17:57;16.70;99.90
18173;DHT22;9211;48.818;9.312;2023-08-06T07:20:25;16.70;99.90
18173;DHT22;9211;48.818;9.312;2023-08-06T07:22:54;16.70;99.90
18173;DHT22;9211;48.818;9.312;2023-08-06T07:25:21;16.70;99.90
18173;DHT22;9211;48.818;9.312;2023-08-06T07:27:48;16.70;99.90
18173;DHT22;9211;48.818;9.312;2023-08-06T07:30:15;16.70;99.90
18173;DHT22;9211;48.818;9.312;2023-08-06T07:32:42;16.70;99.90
18173;DHT22;9211;48.818;9.312;2023-08-06T07:35:09;16.70;99.90
18173;DHT22;9211;48.818;9.312;2023-08-06T07:37:39;16.70;99.90
18173;DHT22;9211;48.818;9.312;2023-08-06T07:40:08;16.70;99.90
18173;DHT22;9211;48.818;9.312;2023-08-06T07:42:35;16.70;99.90
18173;DHT22;9211;48.818;9.312;2023-08-06T07:45:02;16.60;99.90
18173;DHT22;9211;48.818;9.312;2023-08-06T07:47:33;16.60;99.90
18173;DHT22;9211;48.818;9.312;2023-08-06T07:50:00;16.50;99.90
18173;DHT22;9211;48.818;9.312;2023-08-06T07:52:27;16.50;99.90
18173;DHT22;9211;48.818;9.312;2023-08-06T07:54:55;16.50;99.90
18173;DHT22;9211;48.818;9.312;2023-08-06T07:57:22;16.50;99.90
18173;DHT22;9211;48.818;9.312;2023-08-06T07:59:49;16.60;99.90
18173;DHT22;9211;48.818;9.312;2023-08-06T08:02:16;16.60;99.90
18173;DHT22;9211;48.818;9.312;2023-08-06T08:04:43;16.70;99.90
18173;DHT22;9211;48.818;9.312;2023-08-06T08:07:13;16.70;99.90
18173;DHT22;9211;48.818;9.312;2023-08-06T08:09:40;16.80;99.90
18173;DHT22;9211;48.818;9.312;2023-08-06T08:12:08;16.90;99.90
18173;DHT22;9211;48.818;9.312;2023-08-06T08:14:35;16.90;99.90
18173;DHT22;9211;48.818;9.312;2023-08-06T08:17:03;16.90;99.90
18173;DHT22;9211;48.818;9.312;2023-08-06T08:19:31;17.10;99.90
18173;DHT22;9211;48.818;9.312;2023-08-06T08:21:58;17.20;99.90
18173;DHT22;9211;48.818;9.312;2023-08-06T08:24:25;17.30;99.90
18173;DHT22;9211;48.818;9.312;2023-08-06T08:26:52;17.40;99.90
18173;DHT22;9211;48.818;9.312;2023-08-06T08:29:21;17.60;99.90
18173;DHT22;9211;48.818;9.312;2023-08-06T08:31:48;17.60;99.90
18173;DHT22;9211;48.818;9.312;2023-08-06T08:34:15;17.80;99.90
18173;DHT22;9211;48.818;9.312;2023-08-06T08:36:43;18.00;99.90
18173;DHT22;9211;48.818;9.312;2023-08-06T08:39:12;18.10;99.90
18173;DHT22;9211;48.818;9.312;2023-08-06T08:41:40;18.30;99.90
18173;DHT22;9211;48.818;9.312;2023-08-06T08:44:08;18.30;99.90
18173;DHT22;9211;48.818;9.312;2023-08-06T08:46:38;18.40;99.90
18173;DHT22;9211;48.818;9.312;2023-08-06T08:49:06;18.50;99.90
18173;DHT22;9211;48.818;9.312;2023-08-06T08:51:33;18.60;99.90
18173;DHT22;9211;48.818;9.312;2023-08-06T08:54:03;18.90;99.90
18173;DHT22;9211;48.818;9.312;2023-08-06T08:56:30;19.00;99.90
18173;DHT22;9211;48.818;9.312;2023-08-06T08:58:57;19.20;99.90
18173;DHT22;9211;48.818;9.312;2023-08-06T09:01:25;19.30;99.90
18173;DHT22;9211;48.818;9.312;2023-08-06T09:03:55;19.50;99.90
18173;DHT22;9211;48.818;9.312;2023-08-06T09:06:24;19.50;99.90
18173;DHT22;9211;48.818;9.312;2023-08-06T09:09:00;19.60;99.90
18173;DHT22;9211;48.818;9.312;2023-08-06T09:11:28;19.40;99.90
18173;DHT22;9211;48.818;9.312;2023-08-06T09:13:57;19.30;99.90
18173;DHT22;9211;48.818;9.312;2023-08-06T09:16:24;19.30;99.90
18173;DHT22;9211;48.818;9.312;2023-08-06T09:18:51;19.20;99.90
18173;DHT22;9211;48.818;9.312;2023-08-06T09:21:19;19.20;99.90
18173;DHT22;9211;48.818;9.312;2023-08-06T09:23:46;19.20;99.90
18173;DHT22;9211;48.818;9.312;2023-08-06T09:26:13;19.00;99.90
18173;DHT22;9211;48.818;9.312;2023-08-06T09:28:40;19.10;99.90
18173;DHT22;9211;48.818;9.312;2023-08-06T09:31:09;19.20;99.90
18173;DHT22;9211;48.818;9.312;2023-08-06T09:33:37;19.20;99.90
18173;DHT22;9211;48.818;9.312;2023-08-06T09:36:08;19.30;99.90
18173;DHT22;9211;48.818;9.312;2023-08-06T09:38:39;19.50;99.90
18173;DHT22;9211;48.818;9.312;2023-08-06T09:41:06;19.40;99.90
18173;DHT22;9211;48.818;9.312;2023-08-06T09:43:40;19.50;99.90
18173;DHT22;9211;48.818;9.312;2023-08-06T09:46:11;19.40;99.90
18173;DHT22;9211;48.818;9.312;2023-08-06T09:48:40;19.40;99.90
18173;DHT22;9211;48.818;9.312;2023-08-06T09:51:08;19.40;99.90
18173;DHT22;9211;48.818;9.312;2023-08-06T09:53:38;19.20;99.90
18173;DHT22;9211;48.818;9.312;2023-08-06T09:56:06;19.10;99.90
18173;DHT22;9211;48.818;9.312;2023-08-06T09:58:36;18.90;99.90
18173;DHT22;9211;48.818;9.312;2023-08-06T10:01:04;18.70;99.90
18173;DHT22;9211;48.818;9.312;2023-08-06T10:03:32;18.80;99.90
18173;DHT22;9211;48.818;9.312;2023-08-06T10:06:00;18.60;99.90
18173;DHT22;9211;48.818;9.312;2023-08-06T10:08:31;18.60;99.90
18173;DHT22;9211;48.818;9.312;2023-08-06T10:11:02;18.70;99.90
18173;DHT22;9211;48.818;9.312;2023-08-06T10:13:32;18.70;99.90
18173;DHT22;9211;48.818;9.312;2023-08-06T10:16:00;18.80;99.90
18173;DHT22;9211;48.818;9.312;2023-08-06T10:18:28;18.90;99.90
18173;DHT22;9211;48.818;9.312;2023-08-06T10:20:55;18.80;99.90
18173;DHT22;9211;48.818;9.312;2023-08-06T10:23:33;18.70;99.90
18173;DHT22;9211;48.818;9.312;2023-08-06T10:26:01;18.60;99.90
18173;DHT22;9211;48.818;9.312;2023-08-06T10:28:34;18.80;99.90
18173;DHT22;9211;48.818;9.312;2023-08-06T10:31:02;19.00;99.90
18173;DHT22;9211;48.818;9.312;2023-08-06T10:33:41;19.10;99.90
18173;DHT22;9211;48.818;9.312;2023-08-06T10:36:11;19.10;99.90
18173;DHT22;9211;48.818;9.312;2023-08-06T10:38:46;19.10;99.90
18173;DHT22;9211;48.818;9.312;2023-08-06T10:41:26;19.20;99.90
18173;DHT22;9211;48.818;9.312;2023-08-06T10:44:05;19.30;99.90
18173;DHT22;9211;48.818;9.312;2023-08-06T10:46:33;19.30;99.90
18173;DHT22;9211;48.818;9.312;2023-08-06T10:49:01;19.20;99.90
18173;DHT22;9211;48.818;9.312;2023-08-06T10:51:28;19.20;99.90
18173;DHT22;9211;48.818;9.312;2023-08-06T10:53:55;19.20;99.90
18173;DHT22;9211;48.818;9.312;2023-08-06T10:56:25;19.20;99.90
18173;DHT22;9211;48.818;9.312;2023-08-06T10:58:55;19.20;99.90
18173;DHT22;9211;48.818;9.312;2023-08-06T11:01:23;19.10;99.90
18173;DHT22;9211;48.818;9.312;2023-08-06T11:03:50;19.10;99.90
18173;DHT22;9211;48.818;9.312;2023-08-06T11:06:19;19.10;99.90
18173;DHT22;9211;48.818;9.312;2023-08-06T11:08:50;19.00;99.90
18173;DHT22;9211;48.818;9.312;2023-08-06T11:11:18;19.00;99.90
18173;DHT22;9211;48.818;9.312;2023-08-06T11:13:48;18.80;99.90
18173;DHT22;9211;48.818;9.312;2023-08-06T11:16:17;18.60;99.90
18173;DHT22;9211;48.818;9.312;2023-08-06T11:18:44;18.40;99.90
18173;DHT22;9211;48.818;9.312;2023-08-06T11:21:11;18.20;99.90
18173;DHT22;9211;48.818;9.312;2023-08-06T11:23:39;17.90;99.90
18173;DHT22;9211;48.818;9.312;2023-08-06T11:26:07;17.70;99.90
18173;DHT22;9211;48.818;9.312;2023-08-06T11:28:34;17.60;99.90
18173;DHT22;9211;48.818;9.312;2023-08-06T11:31:02;17.60;99.90
18173;DHT22;9211;48.818;9.312;2023-08-06T11:33:29;17.60;99.90
18173;DHT22;9211;48.818;9.312;2023-08-06T11:35:58;17.50;99.90
18173;DHT22;9211;48.818;9.312;2023-08-06T11:38:25;17.50;99.90
18173;DHT22;9211;48.818;9.312;2023-08-06T11:40:52;17.50;99.90
18173;DHT22;9211;48.818;9.312;2023-08-06T11:43:20;17.40;99.90
18173;DHT22;9211;48.818;9.312;2023-08-06T11:45:48;17.30;99.90
18173;DHT22;9211;48.818;9.312;2023-08-06T11:48:17;17.40;99.90
18173;DHT22;9211;48.818;9.312;2023-08-06T11:50:44;17.10;99.90
18173;DHT22;9211;48.818;9.312;2023-08-06T11:53:19;17.10;99.90
18173;DHT22;9211;48.818;9.312;2023-08-06T11:55:46;17.10;99.90
18173;DHT22;9211;48.818;9.312;2023-08-06T11:58:17;17.20;99.90
18173;DHT22;9211;48.818;9.312;2023-08-06T12:00:44;17.20;99.90
18173;DHT22;9211;48.818;9.312;2023-08-06T12:03:11;17.10;99.90
18173;DHT22;9211;48.818;9.312;2023-08-06T12:05:39;17.10;99.90
18173;DHT22;9211;48.818;9.312;2023-08-06T12:08:09;17.00;99.90
18173;DHT22;9211;48.818;9.312;2023-08-06T12:10:36;16.90;99.90
18173;DHT22;9211;48.818;9.312;2023-08-06T12:13:02;16.80;99.90
18173;DHT22;9211;48.818;9.312;2023-08-06T12:15:30;16.70;99.90
18173;DHT22;9211;48.818;9.312;2023-08-06T12:17:56;16.60;99.90
18173;DHT22;9211;48.818;9.312;2023-08-06T12:20:24;16.50;99.90
18173;DHT22;9211;48.818;9.312;2023-08-06T12:22:52;16.50;99.90
18173;DHT22;9211;48.818;9.312;2023-08-06T12:25:19;16.30;99.90
18173;DHT22;9211;48.818;9.312;2023-08-06T12:27:46;16.30;99.90
18173;DHT22;9211;48.818;9.312;2023-08-06T12:30:13;16.30;99.90
18173;DHT22;9211;48.818;9.312;2023-08-06T12:32:40;16.20;99.90
18173;DHT22;9211;48.818;9.312;2023-08-06T12:35:08;16.20;99.90
18173;DHT22;9211;48.818;9.312;2023-08-06T12:37:35;16.30;99.90
18173;DHT22;9211;48.818;9.312;2023-08-06T12:40:06;16.30;99.90
18173;DHT22;9211;48.818;9.312;2023-08-06T12:42:33;16.30;99.90
18173;DHT22;9211;48.818;9.312;2023-08-06T12:45:00;16.30;99.90
18173;DHT22;9211;48.818;9.312;2023-08-06T12:47:28;16.40;99.90
18173;DHT22;9211;48.818;9.312;2023-08-06T12:49:55;16.50;99.90
18173;DHT22;9211;48.818;9.312;2023-08-06T12:52:22;16.50;99.90
18173;DHT22;9211;48.818;9.312;2023-08-06T12:54:49;16.60;99.90
18173;DHT22;9211;48.818;9.312;2023-08-06T12:57:17;16.50;99.90
18173;DHT22;9211;48.818;9.312;2023-08-06T12:59:44;16.70;99.90
18173;DHT22;9211;48.818;9.312;2023-08-06T13:02:11;16.70;99.90
18173;DHT22;9211;48.818;9.312;2023-08-06T13:04:37;16.80;99.90
18173;DHT22;9211;48.818;9.312;2023-08-06T13:07:07;16.80;99.90
18173;DHT22;9211;48.818;9.312;2023-08-06T13:09:34;16.80;99.90
18173;DHT22;9211;48.818;9.312;2023-08-06T13:12:01;16.80;99.90
18173;DHT22;9211;48.818;9.312;2023-08-06T13:14:32;16.80;99.90
18173;DHT22;9211;48.818;9.312;2023-08-06T13:17:00;16.80;99.90
18173;DHT22;9211;48.818;9.312;2023-08-06T13:19:28;17.00;99.90
18173;DHT22;9211;48.818;9.312;2023-08-06T13:22:00;17.10;99.90
18173;DHT22;9211;48.818;9.312;2023-08-06T13:24:28;17.20;99.90
18173;DHT22;9211;48.818;9.312;2023-08-06T13:26:55;17.20;99.90
18173;DHT22;9211;48.818;9.312;2023-08-06T13:29:22;17.40;99.90
18173;DHT22;9211;48.818;9.312;2023-08-06T13:31:50;17.60;99.90
18173;DHT22;9211;48.818;9.312;2023-08-06T13:34:17;17.70;99.90
18173;DHT22;9211;48.818;9.312;2023-08-06T13:36:44;17.70;99.90
18173;DHT22;9211;48.818;9.312;2023-08-06T13:39:11;17.70;99.90
18173;DHT22;9211;48.818;9.312;2023-08-06T13:41:38;17.50;99.90
18173;DHT22;9211;48.818;9.312;2023-08-06T13:44:06;17.60;99.90
18173;DHT22;9211;48.818;9.312;2023-08-06T13:46:33;17.60;99.90
18173;DHT22;9211;48.818;9.312;2023-08-06T13:49:01;17.60;99.90
18173;DHT22;9211;48.818;9.312;2023-08-06T13:51:28;17.40;99.90
18173;DHT22;9211;48.818;9.312;2023-08-06T13:53:55;17.40;99.90
18173;DHT22;9211;48.818;9.312;2023-08-06T13:56:23;17.40;99.90
18173;DHT22;9211;48.818;9.312;2023-08-06T13:58:50;17.40;99.90
18173;DHT22;9211;48.818;9.312;2023-08-06T14:01:17;17.60;99.90
18173;DHT22;9211;48.818;9.312;2023-08-06T14:03:44;17.60;99.90
18173;DHT22;9211;48.818;9.312;2023-08-06T14:06:12;17.50;99.90
18173;DHT22;9211;48.818;9.312;2023-08-06T14:08:39;17.50;99.90
18173;DHT22;9211;48.818;9.312;2023-08-06T14:11:06;17.50;99.90
18173;DHT22;9211;48.818;9.312;2023-08-06T14:13:33;17.50;99.90
18173;DHT22;9211;48.818;9.312;2023-08-06T14:16:00;17.60;99.90
18173;DHT22;9211;48.818;9.312;2023-08-06T14:18:27;17.60;99.90
18173;DHT22;9211;48.818;9.312;2023-08-06T14:20:54;17.60;99.90
18173;DHT22;9211;48.818;9.312;2023-08-06T14:23:22;17.40;99.90
18173;DHT22;9211;48.818;9.312;2023-08-06T14:25:49;17.30;99.90
18173;DHT22;9211;48.818;9.312;2023-08-06T14:28:16;17.10;99.90
18173;DHT22;9211;48.818;9.312;2023-08-06T14:30:43;17.20;99.90
18173;DHT22;9211;48.818;9.312;2023-08-06T14:33:09;17.20;99.90
18173;DHT22;9211;48.818;9.312;2023-08-06T14:35:36;17.20;99.90
18173;DHT22;9211;48.818;9.312;2023-08-06T14:38:03;17.10;99.90
18173;DHT22;9211;48.818;9.312;2023-08-06T14:40:31;17.10;99.90
18173;DHT22;9211;48.818;9.312;2023-08-06T14:43:03;17.20;99.90
18173;DHT22;9211;48.818;9.312;2023-08-06T14:45:30;17.30;99.90
18173;DHT22;9211;48.818;9.312;2023-08-06T14:47:57;17.30;99.90
18173;DHT22;9211;48.818;9.312;2023-08-06T14:50:24;17.40;99.90
18173;DHT22;9211;48.818;9.312;2023-08-06T14:52:50;17.50;99.90
18173;DHT22;9211;48.818;9.312;2023-08-06T14:55:22;17.50;99.90
18173;DHT22;9211;48.818;9.312;2023-08-06T14:57:51;17.40;99.90
18173;DHT22;9211;48.818;9.312;2023-08-06T15:00:18;17.50;99.90
18173;DHT22;9211;48.818;9.312;2023-08-06T15:02:45;17.40;99.90
18173;DHT22;9211;48.818;9.312;2023-08-06T15:05:12;17.40;99.90
18173;DHT22;9211;48.818;9.312;2023-08-06T15:07:39;17.40;99.90
18173;DHT22;9211;48.818;9.312;2023-08-06T15:10:06;17.40;99.90
18173;DHT22;9211;48.818;9.312;2023-08-06T15:12:33;17.40;99.90
18173;DHT22;9211;48.818;9.312;2023-08-06T15:15:02;17.40;99.90
18173;DHT22;9211;48.818;9.312;2023-08-06T15:17:29;17.40;99.90
18173;DHT22;9211;48.818;9.312;2023-08-06T15:19:56;17.30;99.90
18173;DHT22;9211;48.818;9.312;2023-08-06T15:22:25;17.20;99.90
18173;DHT22;9211;48.818;9.312;2023-08-06T15:24:52;17.20;99.90
18173;DHT22;9211;48.818;9.312;2023-08-06T15:27:19;17.20;99.90
18173;DHT22;9211;48.818;9.312;2023-08-06T15:29:46;17.10;99.90
18173;DHT22;9211;48.818;9.312;2023-08-06T15:32:14;17.00;99.90
18173;DHT22;9211;48.818;9.312;2023-08-06T15:34:41;17.00;99.90
18173;DHT22;9211;48.818;9.312;2023-08-06T15:37:08;17.10;99.90
18173;DHT22;9211;48.818;9.312;2023-08-06T15:39:35;17.10;99.90
18173;DHT22;9211;48.818;9.312;2023-08-06T15:42:02;17.20;99.90
18173;DHT22;9211;48.818;9.312;2023-08-06T15:44:29;17.20;99.90
18173;DHT22;9211;48.818;9.312;2023-08-06T15:46:55;17.20;99.90
18173;DHT22;9211;48.818;9.312;2023-08-06T15:49:24;17.20;99.90